createdAt,value
2022-10-07T00:00:10.119Z,86.14
2022-10-07T00:05:12.098Z,86.44
2022-10-07T00:10:13.715Z,86.86
2022-10-07T00:15:15.456Z,86.92
2022-10-07T00:20:17.131Z,87.01
2022-10-07T00:25:19.104Z,86.96
2022-10-07T00:30:20.899Z,86.99
2022-10-07T00:35:22.499Z,87.36
2022-10-07T00:40:27.867Z,87.33
2022-10-07T00:45:30.160Z,87.43
2022-10-07T00:50:31.984Z,87.48
2022-10-07T00:55:34.175Z,87.66
2022-10-07T01:00:37.662Z,87.52
2022-10-07T01:05:39.607Z,87.61
2022-10-07T01:11:17.681Z,87.71
2022-10-07T01:16:43.048Z,87.65
2022-10-07T01:22:07.965Z,87.19
2022-10-07T01:27:16.629Z,87.00
2022-10-07T01:32:33.228Z,87.05
2022-10-07T01:37:41.646Z,87.46
2022-10-07T01:42:45.790Z,87.43
2022-10-07T01:47:49.094Z,86.85
2022-10-07T01:53:18.893Z,87.69
2022-10-07T01:58:33.109Z,88.86
2022-10-07T02:04:04.821Z,88.29
2022-10-07T02:09:37.332Z,88.57
2022-10-07T02:14:46.262Z,88.37
2022-10-07T02:19:56.824Z,88.38
2022-10-07T02:25:00.379Z,89.23
2022-10-07T02:30:12.293Z,89.22
2022-10-07T02:35:24.382Z,89.20
2022-10-07T02:40:35.736Z,89.20
2022-10-07T02:45:46.203Z,89.37
2022-10-07T02:50:53.262Z,88.89
2022-10-07T02:55:57.247Z,88.99
2022-10-07T03:01:01.456Z,89.25
2022-10-07T03:06:04.985Z,88.68
2022-10-07T03:11:08.561Z,89.02
2022-10-07T03:16:10.523Z,88.92
2022-10-07T03:21:13.189Z,88.60
2022-10-07T03:26:19.245Z,89.08
2022-10-07T03:31:22.426Z,88.99
2022-10-07T03:36:27.937Z,89.09
2022-10-07T03:41:29.986Z,89.01
2022-10-07T03:46:35.161Z,88.98
2022-10-07T03:51:37.007Z,89.30
2022-10-07T03:56:41.269Z,89.09
2022-10-07T04:01:43.372Z,88.91
2022-10-07T04:06:46.034Z,88.86
2022-10-07T04:11:49.605Z,88.77
2022-10-07T04:16:51.407Z,89.54
2022-10-07T04:21:53.073Z,90.57
2022-10-07T04:26:55.173Z,89.54
2022-10-07T04:31:58.270Z,89.20
2022-10-07T04:37:01.511Z,88.98
2022-10-07T04:42:05.262Z,88.98
2022-10-07T04:47:07.786Z,88.51
2022-10-07T04:52:14.041Z,88.94
2022-10-07T04:57:18.489Z,89.47
2022-10-07T05:02:22.574Z,89.39
2022-10-07T05:07:24.649Z,88.96
2022-10-07T05:12:29.188Z,89.11
2022-10-07T05:17:32.604Z,89.02
2022-10-07T05:22:34.529Z,88.93
2022-10-07T05:27:36.837Z,89.46
2022-10-07T05:32:38.798Z,89.89
2022-10-07T05:37:40.819Z,89.83
2022-10-07T05:42:42.936Z,89.91
2022-10-07T05:47:45.886Z,90.85
2022-10-07T05:52:48.655Z,92.42
2022-10-07T05:57:50.505Z,92.09
2022-10-07T06:02:52.758Z,93.22
2022-10-07T06:07:54.973Z,95.00
2022-10-07T06:13:08.693Z,95.37
2022-10-07T06:18:12.443Z,94.50
2022-10-07T06:23:15.669Z,93.52
2022-10-07T06:28:17.893Z,93.45
2022-10-07T06:33:20.322Z,93.97
2022-10-07T06:38:24.397Z,97.40
2022-10-07T06:43:26.978Z,99.16
2022-10-07T06:48:41.191Z,99.90
2022-10-07T06:53:43.729Z,100.00
2022-10-07T06:58:45.827Z,100.00
2022-10-07T07:03:50.498Z,100.00
2022-10-07T07:08:55.417Z,100.00
2022-10-07T07:13:58.030Z,100.00
2022-10-07T07:19:03.512Z,100.00
2022-10-07T07:24:08.118Z,100.00
2022-10-07T07:29:12.788Z,99.63
2022-10-07T07:34:22.610Z,98.77
2022-10-07T07:39:25.480Z,97.95
2022-10-07T07:44:37.238Z,97.55
2022-10-07T07:49:42.808Z,96.05
2022-10-07T07:54:49.014Z,95.66
2022-10-07T07:59:51.026Z,94.87
2022-10-07T08:04:54.046Z,94.71
2022-10-07T08:09:57.711Z,94.27
2022-10-07T08:14:59.445Z,95.20
2022-10-07T08:20:01.976Z,94.22
2022-10-07T08:25:06.106Z,93.83
2022-10-07T08:30:10.136Z,93.34
2022-10-07T08:35:12.974Z,92.82
2022-10-07T08:40:17.700Z,92.84
2022-10-07T08:45:31.727Z,92.06
2022-10-07T08:50:49.673Z,91.04
2022-10-07T08:56:19.878Z,90.26
2022-10-07T09:01:40.164Z,89.76
2022-10-07T09:06:50.299Z,89.82
2022-10-07T09:11:53.757Z,88.69
2022-10-07T09:17:01.911Z,87.97
2022-10-07T09:22:12.050Z,87.49
2022-10-07T09:27:16.626Z,87.28
2022-10-07T09:32:19.823Z,87.94
2022-10-07T09:37:27.543Z,87.90
2022-10-07T09:42:45.942Z,86.09
2022-10-07T09:47:54.105Z,86.68
2022-10-07T09:52:57.015Z,85.52
2022-10-07T09:58:02.162Z,83.08
2022-10-07T14:56:43.387Z,67.87
2022-10-07T15:01:58.889Z,68.70
2022-10-07T15:36:29.637Z,70.10
2022-10-07T15:41:56.289Z,70.58
2022-10-07T15:47:28.012Z,70.73
2022-10-07T15:52:39.822Z,70.76
2022-10-07T16:38:04.816Z,73.00
2022-10-07T17:11:57.031Z,75.29
2022-10-07T18:36:53.820Z,78.76
2022-10-07T19:12:35.318Z,81.57
2022-10-07T19:36:51.142Z,83.12
2022-10-07T20:06:12.399Z,84.84
2022-10-07T20:48:07.567Z,85.90
2022-10-07T20:53:15.854Z,85.92
2022-10-07T20:58:32.946Z,86.10
2022-10-07T21:08:58.262Z,85.98
2022-10-07T21:14:00.434Z,86.00
2022-10-07T21:19:02.310Z,85.95
2022-10-07T21:24:22.428Z,85.70
2022-10-07T21:29:24.629Z,85.96
2022-10-07T22:36:30.780Z,88.24
2022-10-07T22:41:32.596Z,88.46
2022-10-07T22:46:35.054Z,89.02
2022-10-07T22:51:40.455Z,89.16
2022-10-07T22:56:42.280Z,88.83
2022-10-07T23:01:44.183Z,89.16
2022-10-07T23:07:01.234Z,89.93
2022-10-07T23:12:06.255Z,90.20
2022-10-07T23:17:09.183Z,89.64
2022-10-07T23:22:13.790Z,89.71
2022-10-07T23:27:18.111Z,89.67
2022-10-07T23:32:32.745Z,89.92
2022-10-07T23:37:47.995Z,90.00
2022-10-07T23:42:49.981Z,89.32
2022-10-07T23:47:51.928Z,89.04
2022-10-07T23:53:13.475Z,88.62
2022-10-07T23:58:23.890Z,88.30
